| time (UTC) | temp F | wind direction | speed knots | gust knots | rain 1hr in | rain 24hr in | rain mn in | humidity % | barometer mb |
| 20260506113042 | 42 | 0 | 0.0 | 0.9 | 0.00 | 0.03 | 0.00 | 64 | 1017.7 |
| 20260506111546 | 42 | 0 | 0.0 | 1.7 | 0.00 | 0.03 | 0.00 | 65 | 1017.9 |
| 20260506110038 | 43 | 0 | 0.0 | 1.7 | 0.00 | 0.03 | 0.00 | 65 | 1017.8 |
| 20260506104558 | 43 | 0 | 0.0 | 0.0 | 0.00 | 0.03 | 0.00 | 65 | 1017.7 |
| 20260506103047 | 43 | 67 | 0.0 | 1.7 | 0.00 | 0.03 | 0.00 | 64 | 1017.5 |
| 20260506101545 | 44 | 0 | 0.0 | 0.9 | 0.00 | 0.03 | 0.00 | 65 | 1017.4 |
| 20260506100052 | 44 | 0 | 0.0 | 0.9 | 0.00 | 0.03 | 0.00 | 64 | 1017.4 |
| 20260506094543 | 45 | 0 | 0.0 | 2.6 | 0.00 | 0.03 | 0.00 | 63 | 1017.5 |
| 20260506093047 | 46 | 62 | 0.0 | 2.6 | 0.00 | 0.03 | 0.00 | 61 | 1017.4 |
| 20260506091546 | 47 | 0 | 0.0 | 1.7 | 0.00 | 0.03 | 0.00 | 60 | 1017.5 |
| 20260506090044 | 48 | 0 | 0.0 | 0.9 | 0.00 | 0.03 | 0.00 | 59 | 1017.4 |
| 20260506084613 | 48 | 320 | 0.0 | 1.7 | 0.00 | 0.03 | 0.00 | 58 | 1017.4 |
| 20260506083045 | 50 | 0 | 0.0 | 1.7 | 0.00 | 0.03 | 0.00 | 56 | 1017.4 |
| 20260506081551 | 50 | 290 | 0.0 | 1.7 | 0.00 | 0.03 | 0.00 | 54 | 1017.3 |
| 20260506073046 | 52 | 113 | 4.3 | 10.4 | 0.00 | 0.03 | 0.00 | 50 | 1017.4 |
| 20260506071544 | 53 | 101 | 4.3 | 9.6 | 0.00 | 0.03 | 0.00 | 48 | 1017.5 |
| 20260506061544 | 54 | 126 | 0.9 | 3.5 | 0.00 | 0.03 | 0.03 | 44 | 1017.5 |
| 20260506044547 | 56 | 223 | 1.7 | 3.5 | 0.00 | 0.03 | 0.03 | 43 | 1017.0 |
| 20260506043047 | 56 | 218 | 0.0 | 5.2 | 0.00 | 0.03 | 0.03 | 45 | 1016.7 |
| 20260506041549 | 57 | 136 | 0.0 | 2.6 | 0.00 | 0.03 | 0.03 | 45 | 1016.7 |
| 20260506040041 | 57 | 104 | 0.9 | 3.5 | 0.00 | 0.03 | 0.03 | 44 | 1016.5 |
| 20260506034541 | 58 | 126 | 1.7 | 5.2 | 0.00 | 0.03 | 0.03 | 44 | 1016.3 |
| 20260506033048 | 59 | 97 | 1.7 | 10.4 | 0.00 | 0.03 | 0.03 | 43 | 1016.1 |
| 20260506031545 | 59 | 107 | 7.0 | 16.5 | 0.00 | 0.03 | 0.03 | 42 | 1015.8 |
| 20260506030044 | 60 | 121 | 4.3 | 10.4 | 0.00 | 0.03 | 0.03 | 41 | 1015.4 |
| 20260506024545 | 61 | 77 | 4.3 | 9.6 | 0.00 | 0.03 | 0.03 | 35 | 1015.2 |
| 20260506023100 | 62 | 97 | 6.1 | 13.9 | 0.00 | 0.03 | 0.03 | 34 | 1014.9 |
| 20260506021608 | 62 | 125 | 6.1 | 13.9 | 0.00 | 0.03 | 0.03 | 33 | 1014.6 |
| 20260506020045 | 63 | 69 | 6.1 | 13.0 | 0.00 | 0.03 | 0.03 | 33 | 1014.3 |
| 20260506014545 | 64 | 66 | 7.8 | 17.4 | 0.00 | 0.03 | 0.03 | 31 | 1014.1 |
| 20260506013101 | 65 | 82 | 7.0 | 13.9 | 0.00 | 0.03 | 0.03 | 28 | 1014.1 |
| 20260506011551 | 66 | 76 | 9.6 | 20.9 | 0.00 | 0.03 | 0.03 | 27 | 1013.9 |
| 20260506010057 | 67 | 39 | 7.8 | 17.4 | 0.00 | 0.03 | 0.03 | 25 | 1013.7 |
| 20260506004548 | 67 | 88 | 10.4 | 20.9 | 0.00 | 0.03 | 0.03 | 27 | 1013.6 |
| 20260506003047 | 68 | 80 | 10.4 | 20.0 | 0.00 | 0.03 | 0.03 | 27 | 1013.4 |
| 20260506001547 | 69 | 105 | 12.2 | 20.9 | 0.00 | 0.03 | 0.03 | 28 | 1013.5 |
| 20260506000049 | 69 | 55 | 10.4 | 21.7 | 0.00 | 0.03 | 0.03 | 26 | 1013.4 |
| 20260505234552 | 69 | 61 | 12.2 | 21.7 | 0.00 | 0.03 | 0.03 | 26 | 1013.5 |
| 20260505233050 | 70 | 91 | 12.2 | 23.5 | 0.00 | 0.03 | 0.03 | 27 | 1013.3 |
| 20260505231606 | 70 | 84 | 13.9 | 24.3 | 0.00 | 0.03 | 0.03 | 25 | 1013.2 |
| 20260505230053 | 71 | 85 | 9.6 | 19.1 | 0.00 | 0.03 | 0.03 | 26 | 1013.2 |
| 20260505224556 | 72 | 34 | 8.7 | 20.0 | 0.00 | 0.03 | 0.03 | 25 | 1013.2 |
| 20260505223102 | 72 | 65 | 10.4 | 18.2 | 0.00 | 0.03 | 0.03 | 26 | 1013.4 |
| 20260505221544 | 72 | 29 | 7.0 | 23.5 | 0.00 | 0.03 | 0.03 | 27 | 1013.5 |
| 20260505220058 | 71 | 41 | 12.2 | 21.7 | 0.00 | 0.03 | 0.03 | 26 | 1013.8 |
| 20260505214555 | 70 | 101 | 13.0 | 25.2 | 0.00 | 0.03 | 0.03 | 28 | 1013.7 |
| 20260505213045 | 71 | 346 | 12.2 | 23.5 | 0.00 | 0.03 | 0.03 | 27 | 1014.2 |
| 20260505211544 | 71 | 296 | 11.3 | 20.9 | 0.00 | 0.03 | 0.03 | 30 | 1014.2 |
| 20260505210045 | 71 | 84 | 12.2 | 19.1 | 0.00 | 0.03 | 0.03 | 29 | 1014.4 |
| 20260505204542 | 71 | 59 | 11.3 | 22.6 | 0.00 | 0.03 | 0.03 | 31 | 1014.5 |
| 20260505203103 | 70 | 53 | 13.0 | 18.2 | 0.00 | 0.03 | 0.03 | 32 | 1014.5 |
| 20260505201543 | 70 | 53 | 12.2 | 21.7 | 0.00 | 0.03 | 0.03 | 32 | 1014.6 |
| 20260505200052 | 70 | 77 | 12.2 | 20.9 | 0.00 | 0.03 | 0.03 | 34 | 1014.6 |
| 20260505194545 | 69 | 36 | 8.7 | 25.2 | 0.00 | 0.03 | 0.03 | 33 | 1014.7 |
| 20260505193043 | 70 | 74 | 12.2 | 20.9 | 0.00 | 0.03 | 0.03 | 35 | 1014.9 |
| 20260505191605 | 69 | 42 | 12.2 | 24.3 | 0.00 | 0.03 | 0.03 | 37 | 1015.0 |
| 20260505190049 | 69 | 351 | 9.6 | 21.7 | 0.00 | 0.03 | 0.03 | 38 | 1015.4 |
| 20260505184547 | 68 | 105 | 8.7 | 20.9 | 0.00 | 0.03 | 0.03 | 37 | 1015.5 |
| 20260505183043 | 68 | 63 | 7.8 | 20.9 | 0.00 | 0.03 | 0.03 | 39 | 1015.7 |
| 20260505181547 | 67 | 86 | 8.7 | 18.2 | 0.00 | 0.03 | 0.03 | 43 | 1015.7 |
| 20260505180047 | 66 | 22 | 10.4 | 18.2 | 0.00 | 0.03 | 0.03 | 42 | 1015.8 |
| 20260505174543 | 65 | 24 | 9.6 | 17.4 | 0.00 | 0.03 | 0.03 | 45 | 1015.8 |
| 20260505173047 | 65 | 92 | 7.8 | 15.6 | 0.00 | 0.03 | 0.03 | 48 | 1016.1 |
| 20260505171548 | 63 | 348 | 2.6 | 13.0 | 0.00 | 0.03 | 0.03 | 52 | 1016.2 |
| 20260505164547 | 61 | 330 | 0.9 | 7.0 | 0.00 | 0.03 | 0.03 | 60 | 1016.3 |
| 20260505163052 | 62 | 32 | 3.5 | 13.0 | 0.00 | 0.03 | 0.03 | 54 | 1016.1 |
| 20260505161547 | 62 | 54 | 3.5 | 13.0 | 0.00 | 0.03 | 0.03 | 56 | 1016.0 |
| 20260505153047 | 60 | 46 | 5.2 | 19.1 | 0.00 | 0.03 | 0.03 | 59 | 1015.8 |
| 20260505151556 | 59 | 69 | 3.5 | 11.3 | 0.00 | 0.03 | 0.03 | 61 | 1015.8 |
| 20260505124543 | 53 | 0 | 0.0 | 1.7 | 0.02 | 0.02 | 0.02 | 83 | 1014.7 |
| 20260505123045 | 54 | 0 | 0.9 | 3.5 | 0.01 | 0.01 | 0.01 | 81 | 1014.2 |
| 20260505121555 | 54 | 0 | 0.0 | 0.9 | 0.00 | 0.00 | 0.00 | 79 | 1014.9 |
| 20260505120048 | 54 | 306 | 0.0 | 2.6 | 0.00 | 0.00 | 0.00 | 78 | 1015.0 |
| 20260505114546 | 54 | 245 | 1.7 | 6.1 | 0.00 | 0.00 | 0.00 | 75 | 1014.8 |